createdAt,value
2023-03-22T00:00:06.888Z,7.49
2023-03-22T00:03:10.593Z,7.46
2023-03-22T00:06:13.088Z,7.40
2023-03-22T00:09:15.881Z,7.37
2023-03-22T00:12:18.871Z,7.36
2023-03-22T00:15:21.139Z,7.33
2023-03-22T00:18:23.894Z,7.31
2023-03-22T00:21:26.109Z,7.17
2023-03-22T00:24:28.165Z,7.08
2023-03-22T00:27:30.627Z,7.02
2023-03-22T00:30:32.776Z,6.91
2023-03-22T00:33:35.517Z,6.92
2023-03-22T00:36:38.061Z,6.91
2023-03-22T00:39:40.326Z,6.88
2023-03-22T00:42:42.461Z,6.81
2023-03-22T00:45:44.683Z,6.78
2023-03-22T00:48:47.807Z,6.71
2023-03-22T00:51:49.868Z,6.73
2023-03-22T00:54:52.082Z,6.70
2023-03-22T00:57:54.179Z,6.66
2023-03-22T01:00:56.221Z,6.62
2023-03-22T01:03:58.500Z,6.61
2023-03-22T01:07:02.086Z,6.60
2023-03-22T01:10:06.356Z,6.55
2023-03-22T01:13:09.235Z,6.51
2023-03-22T01:16:11.458Z,6.48
2023-03-22T01:19:13.786Z,6.41
2023-03-22T01:22:15.899Z,6.38
2023-03-22T01:25:18.253Z,6.36
2023-03-22T01:28:20.415Z,6.34
2023-03-22T01:31:22.529Z,6.23
2023-03-22T01:34:26.660Z,6.14
2023-03-22T01:37:28.798Z,6.14
2023-03-22T01:40:31.070Z,6.08
2023-03-22T01:43:33.506Z,6.07
2023-03-22T01:46:35.711Z,6.09
2023-03-22T01:49:39.287Z,6.10
2023-03-22T01:52:41.696Z,6.08
2023-03-22T01:55:45.613Z,6.12
2023-03-22T01:58:48.998Z,6.15
2023-03-22T02:01:51.237Z,6.24
2023-03-22T02:04:58.132Z,6.32
2023-03-22T02:08:01.179Z,6.39
2023-03-22T02:11:04.572Z,6.44
2023-03-22T02:14:54.207Z,6.53
2023-03-22T02:18:30.010Z,6.60
2023-03-22T02:22:04.826Z,6.65
2023-03-22T02:25:54.637Z,6.75
2023-03-22T02:29:07.551Z,6.62
2023-03-22T02:32:28.189Z,6.63
2023-03-22T02:35:48.516Z,6.65
2023-03-22T02:39:11.789Z,6.68
2023-03-22T02:42:26.004Z,6.69
2023-03-22T02:45:54.674Z,6.77
2023-03-22T02:49:33.994Z,6.80
2023-03-22T02:52:44.659Z,6.84
2023-03-22T02:55:46.721Z,6.82
2023-03-22T02:58:53.423Z,6.90
2023-03-22T03:01:59.624Z,6.93
2023-03-22T03:05:02.991Z,6.86
2023-03-22T03:08:06.901Z,6.73
2023-03-22T03:11:10.252Z,6.68
2023-03-22T03:14:27.706Z,6.63
2023-03-22T03:17:35.660Z,6.68
2023-03-22T03:20:52.936Z,6.69
2023-03-22T03:24:03.616Z,6.66
2023-03-22T03:27:31.179Z,6.52
2023-03-22T03:30:43.373Z,6.50
2023-03-22T03:34:12.142Z,6.55
2023-03-22T03:37:19.974Z,6.62
2023-03-22T03:40:54.488Z,6.67
2023-03-22T03:43:58.677Z,6.74
2023-03-22T03:47:02.966Z,6.86
2023-03-22T03:50:06.453Z,6.93
2023-03-22T03:53:09.972Z,7.02
2023-03-22T03:56:12.146Z,7.10
2023-03-22T03:59:18.594Z,7.16
2023-03-22T04:02:20.870Z,7.21
2023-03-22T04:05:23.282Z,7.20
2023-03-22T04:08:26.054Z,7.19
2023-03-22T04:11:28.112Z,7.21
2023-03-22T04:14:30.535Z,7.25
2023-03-22T04:17:33.063Z,7.28
2023-03-22T04:20:35.046Z,7.28
2023-03-22T04:23:37.327Z,7.27
2023-03-22T04:26:39.512Z,7.29
2023-03-22T04:29:41.642Z,7.24
2023-03-22T04:32:43.734Z,7.16
2023-03-22T04:35:46.508Z,7.10
2023-03-22T04:38:49.325Z,7.03
2023-03-22T04:41:51.450Z,7.02
2023-03-22T04:44:53.437Z,6.94
2023-03-22T04:47:56.184Z,6.90
2023-03-22T04:50:58.482Z,6.90
2023-03-22T04:54:00.712Z,6.85
2023-03-22T04:57:02.798Z,6.84
2023-03-22T05:00:08.531Z,6.85
2023-03-22T05:03:10.735Z,6.87
2023-03-22T05:06:13.653Z,6.81
2023-03-22T05:09:16.271Z,6.84
2023-03-22T05:12:18.403Z,6.82
2023-03-22T05:15:20.492Z,6.84
2023-03-22T05:18:26.953Z,6.90
2023-03-22T05:21:36.743Z,6.98
2023-03-22T05:24:38.949Z,7.07
2023-03-22T05:27:41.006Z,7.13
2023-03-22T05:30:44.143Z,7.23
2023-03-22T05:33:46.795Z,7.01
2023-03-22T05:36:51.651Z,7.13
2023-03-22T05:39:56.229Z,7.10
2023-03-22T05:42:58.713Z,7.09
2023-03-22T05:46:00.754Z,7.08
2023-03-22T05:49:02.774Z,7.13
2023-03-22T05:52:06.152Z,7.18
2023-03-22T05:55:08.752Z,7.16
2023-03-22T05:58:11.028Z,7.24
2023-03-22T06:01:16.550Z,7.28
2023-03-22T06:04:18.889Z,7.29
2023-03-22T06:07:20.924Z,7.47
2023-03-22T06:10:24.327Z,7.42
2023-03-22T06:13:26.925Z,7.48
2023-03-22T06:16:29.036Z,7.54
2023-03-22T06:19:31.428Z,7.58
2023-03-22T06:22:33.738Z,7.64
2023-03-22T06:25:36.186Z,7.73
2023-03-22T06:28:38.350Z,7.90
2023-03-22T06:31:40.764Z,8.07
2023-03-22T06:34:42.946Z,8.21
2023-03-22T06:37:45.014Z,8.35
2023-03-22T06:40:47.213Z,8.43
2023-03-22T06:43:49.267Z,8.44
2023-03-22T06:46:51.483Z,8.55
2023-03-22T06:49:53.786Z,8.68
2023-03-22T06:52:56.410Z,8.94
2023-03-22T06:55:58.404Z,9.17
2023-03-22T06:59:00.463Z,9.40
2023-03-22T07:02:02.966Z,9.71
2023-03-22T07:05:05.480Z,9.94
2023-03-22T07:08:07.834Z,10.10
2023-03-22T07:11:09.870Z,10.15
2023-03-22T07:14:11.955Z,10.12
2023-03-22T07:17:14.341Z,10.38
2023-03-22T07:20:16.610Z,10.62
2023-03-22T07:23:18.934Z,10.77
2023-03-22T07:26:21.258Z,10.93
2023-03-22T07:29:23.987Z,10.86
2023-03-22T07:32:26.161Z,11.02
2023-03-22T07:35:28.315Z,11.12
2023-03-22T07:38:31.081Z,11.44
2023-03-22T07:41:33.330Z,11.59
2023-03-22T07:44:36.205Z,11.89
2023-03-22T07:47:41.335Z,12.44
2023-03-22T07:50:43.696Z,12.78
2023-03-22T07:53:46.135Z,12.79
2023-03-22T07:56:48.499Z,13.16
2023-03-22T07:59:50.676Z,13.31
2023-03-22T08:02:53.066Z,13.43
2023-03-22T08:05:58.721Z,13.67
2023-03-22T08:09:01.351Z,13.97
2023-03-22T08:12:03.849Z,14.26
2023-03-22T08:15:06.436Z,14.63
2023-03-22T08:18:08.880Z,14.63
2023-03-22T08:21:11.382Z,14.75
2023-03-22T08:24:16.126Z,14.77
2023-03-22T08:27:19.263Z,15.52
2023-03-22T08:30:22.541Z,15.77
2023-03-22T08:33:25.488Z,16.32
2023-03-22T08:36:27.720Z,16.76
2023-03-22T08:39:29.758Z,17.30
2023-03-22T08:42:32.120Z,17.19
2023-03-22T08:45:34.739Z,17.63
2023-03-22T08:48:38.665Z,17.89
2023-03-22T08:51:41.343Z,17.95
2023-03-22T08:54:43.650Z,18.51
2023-03-22T08:57:50.317Z,18.64
2023-03-22T09:00:52.588Z,19.12
2023-03-22T09:03:54.822Z,19.55
2023-03-22T09:06:57.033Z,19.61
2023-03-22T09:09:59.235Z,19.13
2023-03-22T09:13:01.391Z,18.56
2023-03-22T09:16:04.465Z,19.12
2023-03-22T09:19:06.889Z,18.95
2023-03-22T09:22:09.493Z,19.04
2023-03-22T09:25:13.096Z,18.29
2023-03-22T09:28:16.676Z,18.65
2023-03-22T09:31:20.522Z,19.10
2023-03-22T09:34:22.977Z,19.66
2023-03-22T09:37:30.379Z,20.28
2023-03-22T09:40:35.264Z,19.83
2023-03-22T09:43:42.536Z,21.27
2023-03-22T09:46:48.175Z,21.02
2023-03-22T09:50:01.419Z,20.60
2023-03-22T09:53:03.585Z,20.96
2023-03-22T09:56:18.002Z,20.54
2023-03-22T09:59:40.146Z,21.28
2023-03-22T10:02:54.662Z,21.12
2023-03-22T10:06:21.052Z,21.09
2023-03-22T10:09:37.628Z,21.34
2023-03-22T10:12:40.024Z,21.40
2023-03-22T10:15:48.541Z,21.35
2023-03-22T10:18:53.934Z,20.01
2023-03-22T10:22:00.145Z,20.74
2023-03-22T10:25:03.294Z,20.28
2023-03-22T10:28:24.047Z,20.57
2023-03-22T10:31:28.111Z,21.20
2023-03-22T10:34:33.777Z,21.22
2023-03-22T10:37:37.754Z,21.54
2023-03-22T10:40:41.134Z,21.79
2023-03-22T10:43:46.205Z,21.70
2023-03-22T10:46:51.617Z,22.58
2023-03-22T10:49:56.312Z,23.13
2023-03-22T10:53:07.102Z,23.40
2023-03-22T10:56:15.903Z,24.30
2023-03-22T10:59:51.787Z,24.22
2023-03-22T11:02:59.736Z,23.99
2023-03-22T11:06:18.244Z,23.08
2023-03-22T11:09:23.785Z,23.29
2023-03-22T11:12:25.974Z,23.66
2023-03-22T11:15:31.869Z,24.05
2023-03-22T11:18:35.183Z,23.85
2023-03-22T11:21:37.397Z,24.32
2023-03-22T11:24:39.545Z,23.50
2023-03-22T11:27:57.944Z,24.01
2023-03-22T11:31:09.956Z,24.41
2023-03-22T11:34:18.490Z,24.64
2023-03-22T11:37:22.442Z,24.10
2023-03-22T11:40:30.910Z,24.49
2023-03-22T11:43:37.414Z,22.82
2023-03-22T11:46:40.353Z,24.43
2023-03-22T11:49:51.267Z,24.99
2023-03-22T11:52:54.194Z,24.93
2023-03-22T11:55:57.974Z,25.09
2023-03-22T11:59:08.936Z,24.46
2023-03-22T12:02:49.867Z,25.20
2023-03-22T12:05:53.241Z,24.86
2023-03-22T12:09:11.037Z,23.30
2023-03-22T12:12:19.397Z,22.75
2023-03-22T12:15:24.740Z,24.11
2023-03-22T12:18:36.497Z,23.82
2023-03-22T12:21:38.981Z,22.36
2023-03-22T12:24:42.913Z,21.65
2023-03-22T12:27:48.794Z,22.54
2023-03-22T12:30:54.627Z,23.92
2023-03-22T12:34:03.311Z,23.09
2023-03-22T12:37:09.354Z,23.97
2023-03-22T12:40:28.655Z,22.67
2023-03-22T12:43:33.543Z,23.65
2023-03-22T12:46:45.215Z,24.53
2023-03-22T12:49:49.958Z,24.59
2023-03-22T12:52:56.657Z,24.99
2023-03-22T12:56:01.199Z,24.28
2023-03-22T12:59:06.674Z,24.39
2023-03-22T13:02:19.928Z,25.62
2023-03-22T13:05:27.199Z,25.27
2023-03-22T13:09:24.379Z,24.20
2023-03-22T13:12:30.508Z,25.05
2023-03-22T13:15:42.081Z,24.02
2023-03-22T13:18:45.335Z,25.51
2023-03-22T13:21:49.456Z,26.34
2023-03-22T13:25:12.636Z,24.80
2023-03-22T13:28:37.283Z,26.27
2023-03-22T13:31:44.576Z,27.45
2023-03-22T13:34:52.580Z,26.34
2023-03-22T13:38:03.061Z,25.79
2023-03-22T13:41:14.194Z,25.46
2023-03-22T13:44:26.510Z,25.39
2023-03-22T13:47:43.755Z,25.91
2023-03-22T13:50:46.185Z,26.17
2023-03-22T13:53:57.243Z,24.18
2023-03-22T13:57:01.634Z,23.48
2023-03-22T14:00:33.617Z,23.97
2023-03-22T14:03:40.981Z,24.19
2023-03-22T14:07:24.391Z,23.53
2023-03-22T14:10:33.093Z,25.11
2023-03-22T14:13:42.374Z,24.88
2023-03-22T14:16:50.901Z,24.95
2023-03-22T14:19:53.512Z,24.59
